Havva Ana — V7RE3 — position and weather

sailwx.info

Track history (hours):
 
Tides and Currents Weather Stations Pressure Air Temp Water Temp Dewpoint Dewpoint Depression Visibility Wind Speed Wind Dir Waves Ship Positions

Havva Ana

Last reported at 2018-Jul-19 03:07 UTC. Time now 2018-Jul-20 23:52 UTC.
Position N 41°13' W 008°51'.

Length 123 m; draft 7.1 m.

Type: Tanker. MMSI: 538003488.

Date/timePositionNaut miles runAvg speedWind from/ knotsBaromVisibWave heightAir tempDewpointWater temp
2018-Jul-19 03:07N 41°13' W 008°51'110.7
2018-Jul-19 03:00N 41°12' W 008°50'510.7
2018-Jul-19 02:30N 41°10' W 008°43'1 1.7
2018-Jul-19 02:01N 41°11' W 008°43'0 0.0
2018-Jul-19 01:28N 41°11' W 008°43'0 0.0
2018-Jul-19 00:58N 41°11' W 008°43'0 0.0
2018-Jul-19 00:28N 41°11' W 008°43'0 0.0
2018-Jul-18 23:58N 41°11' W 008°43'0 0.0
2018-Jul-18 23:28N 41°11' W 008°43'0 0.0
2018-Jul-18 22:58N 41°11' W 008°43'0 0.0
2018-Jul-18 22:28N 41°11' W 008°43'0 0.0
2018-Jul-18 21:58N 41°11' W 008°43'0 0.0
2018-Jul-18 21:28N 41°11' W 008°43'0 0.0
2018-Jul-18 20:58N 41°11' W 008°43'0 0.0
2018-Jul-18 20:28N 41°11' W 008°43'0 0.0
2018-Jul-18 19:58N 41°11' W 008°43'0 0.0
2018-Jul-18 19:28N 41°11' W 008°43'0 0.0
2018-Jul-18 18:58N 41°11' W 008°43'0 0.0
2018-Jul-18 18:28N 41°11' W 008°43'0 0.0
2018-Jul-18 17:58N 41°11' W 008°43'0 0.0
2018-Jul-18 17:28N 41°11' W 008°43'0 0.0
2018-Jul-18 16:58N 41°11' W 008°43'0 0.0
2018-Jul-18 16:28N 41°11' W 008°43'0 0.0
2018-Jul-18 15:58N 41°11' W 008°43'0 0.0
2018-Jul-18 15:28N 41°11' W 008°43'0 0.0
2018-Jul-18 14:58N 41°11' W 008°43'0 0.0
2018-Jul-18 14:28N 41°11' W 008°43'2 0.6
2018-Jul-18 10:28N 41°09' W 008°44'3 0.6
2018-Jul-18 05:57N 41°07' W 008°46'12810.0
2018-Jul-17 17:07N 39°11' W 009°57'110.0
2018-Jul-17 16:59N 39°10' W 009°57'510.1
2018-Jul-17 16:28N 39°05' W 009°57'510.3
2018-Jul-17 16:00N 38°60' W 009°57'510.5
2018-Jul-17 15:30N 38°55' W 009°57'510.7
2018-Jul-17 15:00N 38°49' W 009°57'610.9
2018-Jul-17 14:30N 38°44' W 009°57'610.5
2018-Jul-17 13:57N 38°38' W 009°56'510.4
2018-Jul-17 13:29N 38°33' W 009°54'510.8
2018-Jul-17 13:00N 38°28' W 009°53'610.6
2018-Jul-17 12:26N 38°22' W 009°51'1210.6
2018-Jul-17 11:18N 38°11' W 009°48'410.7
2018-Jul-17 10:58N 38°07' W 009°46'6711.1
2018-Jul-17 04:55N 37°02' W 009°28'511.2
2018-Jul-17 04:29N 36°57' W 009°26'19711.0
2018-Jul-16 10:39N 35°59' W 005°33'1 9.0
2018-Jul-16 10:31N 35°59' W 005°31'5 9.0
2018-Jul-16 10:01N 36°01' W 005°26'4 8.6
2018-Jul-16 09:30N 36°02' W 005°21'5 9.4
2018-Jul-16 09:00N 36°03' W 005°15'375 9.7
2018-Jul-14 18:31N 39°34' E 001°17'011.5
2018-Jul-14 18:30N 39°35' E 001°18'611.7
2018-Jul-14 18:00N 39°38' E 001°24'6511.9
2018-Jul-14 12:31N 40°17' E 002°32'011.7
2018-Jul-14 12:29N 40°17' E 002°33'611.7
2018-Jul-14 12:00N 40°20' E 002°38'6011.7
2018-Jul-14 06:52N 40°56' E 003°42'611.9
2018-Jul-14 06:23N 40°60' E 003°48'811.6
2018-Jul-14 05:40N 41°05' E 003°57'1011.5
2018-Jul-14 04:50N 41°11' E 004°07'711.5
2018-Jul-14 04:14N 41°15' E 004°14'311.5
2018-Jul-14 04:00N 41°16' E 004°17'611.6
2018-Jul-14 03:29N 41°20' E 004°24'911.6
2018-Jul-14 02:44N 41°25' E 004°33'311.5
2018-Jul-14 02:30N 41°27' E 004°36'611.6
2018-Jul-14 02:00N 41°30' E 004°42'611.7
2018-Jul-14 01:30N 41°33' E 004°48'611.4
2018-Jul-14 01:00N 41°37' E 004°54'711.5
2018-Jul-14 00:22N 41°41' E 005°02'411.6
2018-Jul-14 00:00N 41°44' E 005°07'611.6
2018-Jul-13 23:30N 41°47' E 005°13'611.4
2018-Jul-13 23:00N 41°51' E 005°19'611.4
2018-Jul-13 22:30N 41°54' E 005°25'611.7
2018-Jul-13 22:00N 41°58' E 005°32'611.6
2018-Jul-13 21:30N 42°01' E 005°38'611.5
2018-Jul-13 21:00N 42°04' E 005°44'611.3
2018-Jul-13 20:26N 42°08' E 005°51'511.4
2018-Jul-13 20:00N 42°11' E 005°56'611.4
2018-Jul-13 19:30N 42°15' E 006°03'611.6
2018-Jul-13 19:00N 42°18' E 006°09'611.5
2018-Jul-13 18:30N 42°21' E 006°15'611.5
2018-Jul-13 18:00N 42°25' E 006°21'911.3
2018-Jul-13 17:14N 42°30' E 006°31'311.3
2018-Jul-13 17:00N 42°32' E 006°34'611.2
2018-Jul-13 16:30N 42°35' E 006°40'510.9
2018-Jul-13 16:00N 42°38' E 006°46'510.8
2018-Jul-13 15:30N 42°41' E 006°52'510.8
2018-Jul-13 15:00N 42°45' E 006°57'1110.9
2018-Jul-13 14:00N 42°51' E 007°09'611.3
2018-Jul-13 13:30N 42°55' E 007°16'611.8
2018-Jul-13 13:00N 42°58' E 007°22'611.9
2018-Jul-13 12:30N 43°02' E 007°29'612.0
2018-Jul-13 12:00N 43°05' E 007°35'612.2
2018-Jul-13 11:28N 43°09' E 007°42'612.0
2018-Jul-13 11:00N 43°13' E 007°48'912.0
2018-Jul-13 10:17N 43°17' E 007°58'2512.2
2018-Jul-13 08:15N 43°39' E 008°16'412.7
2018-Jul-13 07:57N 43°42' E 008°19'612.7
2018-Jul-13 07:27N 43°47' E 008°23'612.6
2018-Jul-13 06:59N 43°52' E 008°28'612.4
2018-Jul-13 06:30N 43°57' E 008°32'612.3
2018-Jul-13 06:00N 44°03' E 008°37'612.1
2018-Jul-13 05:30N 44°08' E 008°40'612.2
2018-Jul-13 05:00N 44°14' E 008°42'612.3
2018-Jul-13 04:30N 44°20' E 008°45'611.1
2018-Jul-13 04:00N 44°25' E 008°49'1 1.6
2018-Jul-13 03:25N 44°25' E 008°50'0 0.0
2018-Jul-13 02:58N 44°25' E 008°50'0 0.0
2018-Jul-13 02:28N 44°25' E 008°50'0 0.0
2018-Jul-13 01:58N 44°25' E 008°50'0 0.0
2018-Jul-13 01:28N 44°25' E 008°50'0 0.0
2018-Jul-13 00:58N 44°25' E 008°50'0 0.0
2018-Jul-13 00:28N 44°25' E 008°50'0 0.0
2018-Jul-12 23:58N 44°25' E 008°50'0 0.0
2018-Jul-12 23:28N 44°25' E 008°50'0 0.0
2018-Jul-12 22:58N 44°25' E 008°50'0 0.0
2018-Jul-12 22:28N 44°25' E 008°50'0 0.0
2018-Jul-12 21:58N 44°25' E 008°50'0 0.0
2018-Jul-12 21:28N 44°25' E 008°50'0 0.0
2018-Jul-12 20:58N 44°25' E 008°50'0 0.0
2018-Jul-12 20:28N 44°25' E 008°50'0 0.0
2018-Jul-12 19:58N 44°25' E 008°50'0 0.0
2018-Jul-12 19:25N 44°25' E 008°50'0 0.0
2018-Jul-12 18:55N 44°25' E 008°50'0 0.0
2018-Jul-12 18:28N 44°25' E 008°50'0 0.0
2018-Jul-12 17:58N 44°25' E 008°50'0 0.0
2018-Jul-12 17:28N 44°25' E 008°50'0 0.0
2018-Jul-12 16:52N 44°25' E 008°50'0 0.0
2018-Jul-12 16:28N 44°25' E 008°50'0 0.0
2018-Jul-12 15:58N 44°25' E 008°50'0 0.0
2018-Jul-12 15:25N 44°25' E 008°50'0 0.0
2018-Jul-12 14:58N 44°25' E 008°50'0 0.0
2018-Jul-12 14:28N 44°25' E 008°50'0 0.0
2018-Jul-12 13:58N 44°25' E 008°50'0 0.0
2018-Jul-12 13:25N 44°25' E 008°50'0 0.0
2018-Jul-12 12:55N 44°25' E 008°50'0 0.0
2018-Jul-12 12:28N 44°25' E 008°50'0 0.0
2018-Jul-12 11:58N 44°25' E 008°50'0 0.0
2018-Jul-12 11:28N 44°25' E 008°50'0 0.0
2018-Jul-12 10:58N 44°25' E 008°50'0 0.0
2018-Jul-12 10:28N 44°25' E 008°50'0 0.0
2018-Jul-12 09:58N 44°25' E 008°50'0 0.0
2018-Jul-12 09:28N 44°25' E 008°50'0 0.0
2018-Jul-12 08:58N 44°25' E 008°50'0 0.0
2018-Jul-12 08:28N 44°25' E 008°50'0 0.0
2018-Jul-12 07:58N 44°25' E 008°50'0 0.0
2018-Jul-12 07:28N 44°25' E 008°50'0 0.0
2018-Jul-12 06:58N 44°25' E 008°50'0 0.0
2018-Jul-12 06:28N 44°25' E 008°50'0 0.0
2018-Jul-12 05:58N 44°25' E 008°50'0 0.0
2018-Jul-12 05:28N 44°25' E 008°50'0 0.0
2018-Jul-12 04:58N 44°25' E 008°50'0 0.0
2018-Jul-12 04:26N 44°25' E 008°50'1 1.6
2018-Jul-12 04:00N 44°25' E 008°49'2 4.3
2018-Jul-12 03:30N 44°23' E 008°49'2 3.5
2018-Jul-12 03:00N 44°24' E 008°51'0 0.1
2018-Jul-12 02:30N 44°24' E 008°51'0 0.0
2018-Jul-12 02:00N 44°24' E 008°51'0 0.0
2018-Jul-12 01:30N 44°24' E 008°51'0 0.1
2018-Jul-12 00:57N 44°24' E 008°51'0 0.0
2018-Jul-12 00:30N 44°24' E 008°51'0 0.0
2018-Jul-12 00:00N 44°24' E 008°51'0 0.0
2018-Jul-11 23:30N 44°24' E 008°51'0 0.0
2018-Jul-11 23:00N 44°24' E 008°51'0 0.0
2018-Jul-11 22:30N 44°24' E 008°51'0 0.0
2018-Jul-11 22:00N 44°24' E 008°51'0 0.0
2018-Jul-11 21:30N 44°24' E 008°51'0 0.0
2018-Jul-11 21:00N 44°24' E 008°51'0 0.0
2018-Jul-11 20:30N 44°24' E 008°51'0 0.0
2018-Jul-11 20:00N 44°24' E 008°51'0 0.0
2018-Jul-11 19:30N 44°24' E 008°51'0 0.0
2018-Jul-11 19:00N 44°24' E 008°51'0 0.0
2018-Jul-11 18:30N 44°24' E 008°51'0 0.0
2018-Jul-11 18:00N 44°24' E 008°51'0 0.0
2018-Jul-11 17:30N 44°24' E 008°51'0 0.0
2018-Jul-11 17:00N 44°24' E 008°51'0 0.0
2018-Jul-11 16:30N 44°24' E 008°51'0 0.0
2018-Jul-11 16:00N 44°24' E 008°51'0 0.0
2018-Jul-11 15:30N 44°24' E 008°51'0 0.0
2018-Jul-11 15:00N 44°24' E 008°51'0 0.0
2018-Jul-11 14:30N 44°24' E 008°51'0 0.0
2018-Jul-11 14:00N 44°24' E 008°51'0 0.0
2018-Jul-11 13:30N 44°24' E 008°51'0 0.0
2018-Jul-11 13:00N 44°24' E 008°51'0 0.0
2018-Jul-11 12:30N 44°24' E 008°51'0 0.0
2018-Jul-11 12:00N 44°24' E 008°51'0 0.1
2018-Jul-11 11:30N 44°24' E 008°51'0 0.0
2018-Jul-11 11:00N 44°24' E 008°51'0 0.0
2018-Jul-11 10:30N 44°24' E 008°51'0 0.0
2018-Jul-11 10:00N 44°24' E 008°51'0 0.0
2018-Jul-11 09:30N 44°24' E 008°51'0 0.0
2018-Jul-11 09:00N 44°24' E 008°51'0 0.0
2018-Jul-11 08:30N 44°24' E 008°51'0 0.1
2018-Jul-11 08:00N 44°24' E 008°51'2 3.6
2018-Jul-11 07:30N 44°22' E 008°50'3 5.8
2018-Jul-11 07:01N 44°21' E 008°47'0 0.6
2018-Jul-11 06:30N 44°21' E 008°46'4 8.3
2018-Jul-11 06:00N 44°18' E 008°49'612.4
2018-Jul-11 05:30N 44°12' E 008°54'611.2
2018-Jul-11 05:00N 44°08' E 008°59'5 9.4
2018-Jul-11 04:30N 44°04' E 009°02'5 9.4
2018-Jul-11 04:00N 44°00' E 009°06'5 9.4
2018-Jul-11 03:30N 43°56' E 009°10'5 9.4
2018-Jul-11 03:00N 43°53' E 009°14'3 5.0
2018-Jul-11 02:30N 43°51' E 009°17'4 8.2
2018-Jul-11 02:00N 43°54' E 009°13'2 5.0
2018-Jul-11 01:30N 43°52' E 009°15'1 1.7
2018-Jul-11 01:00N 43°51' E 009°14'1 1.7
2018-Jul-11 00:30N 43°50' E 009°14'1 1.6
2018-Jul-11 00:00N 43°50' E 009°14'1 1.7
2018-Jul-10 23:30N 43°49' E 009°13'1 1.7
2018-Jul-10 23:00N 43°48' E 009°13'1 1.8
2018-Jul-10 22:30N 43°47' E 009°12'1 1.8
2018-Jul-10 22:00N 43°46' E 009°12'1 1.7
2018-Jul-10 21:30N 43°46' E 009°11'1 1.6
2018-Jul-10 21:00N 43°45' E 009°11'1 1.5
2018-Jul-10 20:30N 43°44' E 009°10'1 1.4
2018-Jul-10 20:00N 43°44' E 009°10'1 1.3
2018-Jul-10 19:30N 43°43' E 009°09'1 1.2
2018-Jul-10 19:00N 43°42' E 009°09'1 1.2
2018-Jul-10 18:30N 43°42' E 009°09'0 0.9
2018-Jul-10 18:00N 43°41' E 009°09'0 0.8
2018-Jul-10 17:30N 43°41' E 009°09'0 0.6
2018-Jul-10 17:00N 43°41' E 009°09'0 0.5
2018-Jul-10 16:30N 43°40' E 009°09'0 0.6
2018-Jul-10 16:00N 43°40' E 009°09'0 0.6
2018-Jul-10 15:30N 43°40' E 009°09'0 0.2
2018-Jul-10 15:00N 43°40' E 009°09'1 2.9
2018-Jul-10 14:30N 43°41' E 009°10'0 0.8
2018-Jul-10 14:00N 43°41' E 009°11'0 0.6
2018-Jul-10 13:30N 43°40' E 009°10'0 0.6
2018-Jul-10 13:00N 43°40' E 009°10'0 0.6
2018-Jul-10 12:30N 43°40' E 009°10'0 0.6
2018-Jul-10 12:00N 43°40' E 009°09'0 0.6
2018-Jul-10 11:30N 43°40' E 009°09'0 0.7
2018-Jul-10 11:00N 43°39' E 009°09'0 0.7
2018-Jul-10 10:22N 43°39' E 009°08'0 0.7
2018-Jul-10 09:58N 43°39' E 009°08'0 0.6
2018-Jul-10 09:28N 43°39' E 009°08'0 0.8
2018-Jul-10 08:55N 43°38' E 009°07'4 8.9
2018-Jul-10 08:30N 43°40' E 009°03'611.3
2018-Jul-10 08:00N 43°44' E 008°57'611.5
2018-Jul-10 07:30N 43°47' E 008°51'611.7
2018-Jul-10 07:00N 43°53' E 008°47'612.0
2018-Jul-10 06:30N 43°58' E 008°44'612.4
2018-Jul-10 06:00N 44°04' E 008°40'612.5
2018-Jul-10 05:30N 44°09' E 008°37'612.4
2018-Jul-10 05:00N 44°15' E 008°32'4 8.2
2018-Jul-10 04:30N 44°16' E 008°27'0 0.0
2018-Jul-10 04:00N 44°16' E 008°27'0 0.0
2018-Jul-10 03:30N 44°16' E 008°27'0 0.0
2018-Jul-10 03:00N 44°16' E 008°27'0 0.0
2018-Jul-10 02:30N 44°16' E 008°27'0 0.0
2018-Jul-10 01:57N 44°16' E 008°27'0 0.0
2018-Jul-10 01:30N 44°16' E 008°27'0 0.0
2018-Jul-10 01:00N 44°16' E 008°27'0 0.0
2018-Jul-10 00:30N 44°16' E 008°27'0 0.0
2018-Jul-10 00:00N 44°16' E 008°27'0 0.0
2018-Jul-09 23:30N 44°16' E 008°27'0 0.0
2018-Jul-09 23:00N 44°16' E 008°27'0 0.0
2018-Jul-09 22:30N 44°16' E 008°27'0 0.0
2018-Jul-09 22:00N 44°16' E 008°27'0 0.0
2018-Jul-09 21:30N 44°16' E 008°27'0 0.0
2018-Jul-09 21:00N 44°16' E 008°27'0 0.0
2018-Jul-09 20:30N 44°16' E 008°27'0 0.0
2018-Jul-09 20:00N 44°16' E 008°27'0 0.0
2018-Jul-09 19:30N 44°16' E 008°27'0 0.0
2018-Jul-09 19:00N 44°16' E 008°27'0 0.0
2018-Jul-09 18:30N 44°16' E 008°27'0 0.0
2018-Jul-09 18:00N 44°16' E 008°27'0 0.0
2018-Jul-09 17:30N 44°16' E 008°27'0 0.0
2018-Jul-09 17:00N 44°16' E 008°27'0 0.0
2018-Jul-09 16:30N 44°16' E 008°27'0 0.0
2018-Jul-09 16:00N 44°16' E 008°27'0 0.0
2018-Jul-09 15:30N 44°16' E 008°27'0 0.0
2018-Jul-09 15:00N 44°16' E 008°27'0 0.0
2018-Jul-09 14:30N 44°16' E 008°27'0 0.0
2018-Jul-09 14:00N 44°16' E 008°27'0 0.0
2018-Jul-09 13:30N 44°16' E 008°27'0 0.0
2018-Jul-09 13:00N 44°16' E 008°27'0 0.0
2018-Jul-09 12:30N 44°16' E 008°27'0 0.0
2018-Jul-09 12:00N 44°16' E 008°27'0 0.0
2018-Jul-09 11:30N 44°16' E 008°27'0 0.0
2018-Jul-09 11:00N 44°16' E 008°27'0 0.0
2018-Jul-09 10:30N 44°16' E 008°27'0 0.0
2018-Jul-09 10:00N 44°16' E 008°27'0 0.0
2018-Jul-09 09:30N 44°16' E 008°27'0 0.0
2018-Jul-09 09:00N 44°16' E 008°27'0 0.0
2018-Jul-09 08:30N 44°16' E 008°27'0 0.0
2018-Jul-09 08:00N 44°16' E 008°27'0 0.0
2018-Jul-09 07:30N 44°16' E 008°27'0 0.0
2018-Jul-09 07:00N 44°16' E 008°27'0 0.0
2018-Jul-09 06:30N 44°16' E 008°27'0 0.0
2018-Jul-09 05:57N 44°16' E 008°27'0 0.0
2018-Jul-09 05:31N 44°16' E 008°27'1 1.6
2018-Jul-09 05:00N 44°17' E 008°28'1 1.3
2018-Jul-09 04:30N 44°17' E 008°28'0 0.0
2018-Jul-09 03:57N 44°17' E 008°28'0 0.0
2018-Jul-09 03:30N 44°17' E 008°28'  
Track history (hours):
 
Tides and Currents Weather Stations Pressure Air Temp Water Temp Dewpoint Dewpoint Depression Visibility Wind Speed Wind Dir Waves Ship Positions

Havva Ana

Last reported at 2018-Jul-19 03:07 UTC. Time now 2018-Jul-20 23:52 UTC.
Position N 41°13' W 008°51'.

Length 123 m; draft 7.1 m.

Type: Tanker. MMSI: 538003488.

Date/timePositionNaut miles runAvg speedWind from/ knotsBaromVisibWave heightAir tempDewpointWater temp
2018-Jul-19 03:07N 41°13' W 008°51'110.7
2018-Jul-19 03:00N 41°12' W 008°50'510.7
2018-Jul-19 02:30N 41°10' W 008°43'1 1.7
2018-Jul-19 02:01N 41°11' W 008°43'0 0.0
2018-Jul-19 01:28N 41°11' W 008°43'0 0.0
2018-Jul-19 00:58N 41°11' W 008°43'0 0.0
2018-Jul-19 00:28N 41°11' W 008°43'0 0.0
2018-Jul-18 23:58N 41°11' W 008°43'0 0.0
2018-Jul-18 23:28N 41°11' W 008°43'0 0.0
2018-Jul-18 22:58N 41°11' W 008°43'0 0.0
2018-Jul-18 22:28N 41°11' W 008°43'0 0.0
2018-Jul-18 21:58N 41°11' W 008°43'0 0.0
2018-Jul-18 21:28N 41°11' W 008°43'0 0.0
2018-Jul-18 20:58N 41°11' W 008°43'0 0.0
2018-Jul-18 20:28N 41°11' W 008°43'0 0.0
2018-Jul-18 19:58N 41°11' W 008°43'0 0.0
2018-Jul-18 19:28N 41°11' W 008°43'0 0.0
2018-Jul-18 18:58N 41°11' W 008°43'0 0.0
2018-Jul-18 18:28N 41°11' W 008°43'0 0.0
2018-Jul-18 17:58N 41°11' W 008°43'0 0.0
2018-Jul-18 17:28N 41°11' W 008°43'0 0.0
2018-Jul-18 16:58N 41°11' W 008°43'0 0.0
2018-Jul-18 16:28N 41°11' W 008°43'0 0.0
2018-Jul-18 15:58N 41°11' W 008°43'0 0.0
2018-Jul-18 15:28N 41°11' W 008°43'0 0.0
2018-Jul-18 14:58N 41°11' W 008°43'0 0.0
2018-Jul-18 14:28N 41°11' W 008°43'2 0.6
2018-Jul-18 10:28N 41°09' W 008°44'3 0.6
2018-Jul-18 05:57N 41°07' W 008°46'12810.0
2018-Jul-17 17:07N 39°11' W 009°57'110.0
2018-Jul-17 16:59N 39°10' W 009°57'510.1
2018-Jul-17 16:28N 39°05' W 009°57'510.3
2018-Jul-17 16:00N 38°60' W 009°57'510.5
2018-Jul-17 15:30N 38°55' W 009°57'510.7
2018-Jul-17 15:00N 38°49' W 009°57'610.9
2018-Jul-17 14:30N 38°44' W 009°57'610.5
2018-Jul-17 13:57N 38°38' W 009°56'510.4
2018-Jul-17 13:29N 38°33' W 009°54'510.8
2018-Jul-17 13:00N 38°28' W 009°53'610.6
2018-Jul-17 12:26N 38°22' W 009°51'1210.6
2018-Jul-17 11:18N 38°11' W 009°48'410.7
2018-Jul-17 10:58N 38°07' W 009°46'6711.1
2018-Jul-17 04:55N 37°02' W 009°28'511.2
2018-Jul-17 04:29N 36°57' W 009°26'19711.0
2018-Jul-16 10:39N 35°59' W 005°33'1 9.0
2018-Jul-16 10:31N 35°59' W 005°31'5 9.0
2018-Jul-16 10:01N 36°01' W 005°26'4 8.6
2018-Jul-16 09:30N 36°02' W 005°21'5 9.4
2018-Jul-16 09:00N 36°03' W 005°15'375 9.7
2018-Jul-14 18:31N 39°34' E 001°17'011.5
2018-Jul-14 18:30N 39°35' E 001°18'611.7
2018-Jul-14 18:00N 39°38' E 001°24'6511.9
2018-Jul-14 12:31N 40°17' E 002°32'011.7
2018-Jul-14 12:29N 40°17' E 002°33'611.7
2018-Jul-14 12:00N 40°20' E 002°38'6011.7
2018-Jul-14 06:52N 40°56' E 003°42'611.9
2018-Jul-14 06:23N 40°60' E 003°48'811.6
2018-Jul-14 05:40N 41°05' E 003°57'1011.5
2018-Jul-14 04:50N 41°11' E 004°07'711.5
2018-Jul-14 04:14N 41°15' E 004°14'311.5
2018-Jul-14 04:00N 41°16' E 004°17'611.6
2018-Jul-14 03:29N 41°20' E 004°24'911.6
2018-Jul-14 02:44N 41°25' E 004°33'311.5
2018-Jul-14 02:30N 41°27' E 004°36'611.6
2018-Jul-14 02:00N 41°30' E 004°42'611.7
2018-Jul-14 01:30N 41°33' E 004°48'611.4
2018-Jul-14 01:00N 41°37' E 004°54'711.5
2018-Jul-14 00:22N 41°41' E 005°02'411.6
2018-Jul-14 00:00N 41°44' E 005°07'611.6
2018-Jul-13 23:30N 41°47' E 005°13'611.4
2018-Jul-13 23:00N 41°51' E 005°19'611.4
2018-Jul-13 22:30N 41°54' E 005°25'611.7
2018-Jul-13 22:00N 41°58' E 005°32'611.6
2018-Jul-13 21:30N 42°01' E 005°38'611.5
2018-Jul-13 21:00N 42°04' E 005°44'611.3
2018-Jul-13 20:26N 42°08' E 005°51'511.4
2018-Jul-13 20:00N 42°11' E 005°56'611.4
2018-Jul-13 19:30N 42°15' E 006°03'611.6
2018-Jul-13 19:00N 42°18' E 006°09'611.5
2018-Jul-13 18:30N 42°21' E 006°15'611.5
2018-Jul-13 18:00N 42°25' E 006°21'911.3
2018-Jul-13 17:14N 42°30' E 006°31'311.3
2018-Jul-13 17:00N 42°32' E 006°34'611.2
2018-Jul-13 16:30N 42°35' E 006°40'510.9
2018-Jul-13 16:00N 42°38' E 006°46'510.8
2018-Jul-13 15:30N 42°41' E 006°52'510.8
2018-Jul-13 15:00N 42°45' E 006°57'1110.9
2018-Jul-13 14:00N 42°51' E 007°09'611.3
2018-Jul-13 13:30N 42°55' E 007°16'611.8
2018-Jul-13 13:00N 42°58' E 007°22'611.9
2018-Jul-13 12:30N 43°02' E 007°29'612.0
2018-Jul-13 12:00N 43°05' E 007°35'612.2
2018-Jul-13 11:28N 43°09' E 007°42'612.0
2018-Jul-13 11:00N 43°13' E 007°48'912.0
2018-Jul-13 10:17N 43°17' E 007°58'2512.2
2018-Jul-13 08:15N 43°39' E 008°16'412.7
2018-Jul-13 07:57N 43°42' E 008°19'612.7
2018-Jul-13 07:27N 43°47' E 008°23'612.6
2018-Jul-13 06:59N 43°52' E 008°28'612.4
2018-Jul-13 06:30N 43°57' E 008°32'612.3
2018-Jul-13 06:00N 44°03' E 008°37'612.1
2018-Jul-13 05:30N 44°08' E 008°40'612.2
2018-Jul-13 05:00N 44°14' E 008°42'612.3
2018-Jul-13 04:30N 44°20' E 008°45'611.1
2018-Jul-13 04:00N 44°25' E 008°49'1 1.6
2018-Jul-13 03:25N 44°25' E 008°50'0 0.0
2018-Jul-13 02:58N 44°25' E 008°50'0 0.0
2018-Jul-13 02:28N 44°25' E 008°50'0 0.0
2018-Jul-13 01:58N 44°25' E 008°50'0 0.0
2018-Jul-13 01:28N 44°25' E 008°50'0 0.0
2018-Jul-13 00:58N 44°25' E 008°50'0 0.0
2018-Jul-13 00:28N 44°25' E 008°50'0 0.0
2018-Jul-12 23:58N 44°25' E 008°50'0 0.0
2018-Jul-12 23:28N 44°25' E 008°50'0 0.0
2018-Jul-12 22:58N 44°25' E 008°50'0 0.0
2018-Jul-12 22:28N 44°25' E 008°50'0 0.0
2018-Jul-12 21:58N 44°25' E 008°50'0 0.0
2018-Jul-12 21:28N 44°25' E 008°50'0 0.0
2018-Jul-12 20:58N 44°25' E 008°50'0 0.0
2018-Jul-12 20:28N 44°25' E 008°50'0 0.0
2018-Jul-12 19:58N 44°25' E 008°50'0 0.0
2018-Jul-12 19:25N 44°25' E 008°50'0 0.0
2018-Jul-12 18:55N 44°25' E 008°50'0 0.0
2018-Jul-12 18:28N 44°25' E 008°50'0 0.0
2018-Jul-12 17:58N 44°25' E 008°50'0 0.0
2018-Jul-12 17:28N 44°25' E 008°50'0 0.0
2018-Jul-12 16:52N 44°25' E 008°50'0 0.0
2018-Jul-12 16:28N 44°25' E 008°50'0 0.0
2018-Jul-12 15:58N 44°25' E 008°50'0 0.0
2018-Jul-12 15:25N 44°25' E 008°50'0 0.0
2018-Jul-12 14:58N 44°25' E 008°50'0 0.0
2018-Jul-12 14:28N 44°25' E 008°50'0 0.0
2018-Jul-12 13:58N 44°25' E 008°50'0 0.0
2018-Jul-12 13:25N 44°25' E 008°50'0 0.0
2018-Jul-12 12:55N 44°25' E 008°50'0 0.0
2018-Jul-12 12:28N 44°25' E 008°50'0 0.0
2018-Jul-12 11:58N 44°25' E 008°50'0 0.0
2018-Jul-12 11:28N 44°25' E 008°50'0 0.0
2018-Jul-12 10:58N 44°25' E 008°50'0 0.0
2018-Jul-12 10:28N 44°25' E 008°50'0 0.0
2018-Jul-12 09:58N 44°25' E 008°50'0 0.0
2018-Jul-12 09:28N 44°25' E 008°50'0 0.0
2018-Jul-12 08:58N 44°25' E 008°50'0 0.0
2018-Jul-12 08:28N 44°25' E 008°50'0 0.0
2018-Jul-12 07:58N 44°25' E 008°50'0 0.0
2018-Jul-12 07:28N 44°25' E 008°50'0 0.0
2018-Jul-12 06:58N 44°25' E 008°50'0 0.0
2018-Jul-12 06:28N 44°25' E 008°50'0 0.0
2018-Jul-12 05:58N 44°25' E 008°50'0 0.0
2018-Jul-12 05:28N 44°25' E 008°50'0 0.0
2018-Jul-12 04:58N 44°25' E 008°50'0 0.0
2018-Jul-12 04:26N 44°25' E 008°50'1 1.6
2018-Jul-12 04:00N 44°25' E 008°49'2 4.3
2018-Jul-12 03:30N 44°23' E 008°49'2 3.5
2018-Jul-12 03:00N 44°24' E 008°51'0 0.1
2018-Jul-12 02:30N 44°24' E 008°51'0 0.0
2018-Jul-12 02:00N 44°24' E 008°51'0 0.0
2018-Jul-12 01:30N 44°24' E 008°51'0 0.1
2018-Jul-12 00:57N 44°24' E 008°51'0 0.0
2018-Jul-12 00:30N 44°24' E 008°51'0 0.0
2018-Jul-12 00:00N 44°24' E 008°51'0 0.0
2018-Jul-11 23:30N 44°24' E 008°51'0 0.0
2018-Jul-11 23:00N 44°24' E 008°51'0 0.0
2018-Jul-11 22:30N 44°24' E 008°51'0 0.0
2018-Jul-11 22:00N 44°24' E 008°51'0 0.0
2018-Jul-11 21:30N 44°24' E 008°51'0 0.0
2018-Jul-11 21:00N 44°24' E 008°51'0 0.0
2018-Jul-11 20:30N 44°24' E 008°51'0 0.0
2018-Jul-11 20:00N 44°24' E 008°51'0 0.0
2018-Jul-11 19:30N 44°24' E 008°51'0 0.0
2018-Jul-11 19:00N 44°24' E 008°51'0 0.0
2018-Jul-11 18:30N 44°24' E 008°51'0 0.0
2018-Jul-11 18:00N 44°24' E 008°51'0 0.0
2018-Jul-11 17:30N 44°24' E 008°51'0 0.0
2018-Jul-11 17:00N 44°24' E 008°51'0 0.0
2018-Jul-11 16:30N 44°24' E 008°51'0 0.0
2018-Jul-11 16:00N 44°24' E 008°51'0 0.0
2018-Jul-11 15:30N 44°24' E 008°51'0 0.0
2018-Jul-11 15:00N 44°24' E 008°51'0 0.0
2018-Jul-11 14:30N 44°24' E 008°51'0 0.0
2018-Jul-11 14:00N 44°24' E 008°51'0 0.0
2018-Jul-11 13:30N 44°24' E 008°51'0 0.0
2018-Jul-11 13:00N 44°24' E 008°51'0 0.0
2018-Jul-11 12:30N 44°24' E 008°51'0 0.0
2018-Jul-11 12:00N 44°24' E 008°51'0 0.1
2018-Jul-11 11:30N 44°24' E 008°51'0 0.0
2018-Jul-11 11:00N 44°24' E 008°51'0 0.0
2018-Jul-11 10:30N 44°24' E 008°51'0 0.0
2018-Jul-11 10:00N 44°24' E 008°51'0 0.0
2018-Jul-11 09:30N 44°24' E 008°51'0 0.0
2018-Jul-11 09:00N 44°24' E 008°51'0 0.0
2018-Jul-11 08:30N 44°24' E 008°51'0 0.1
2018-Jul-11 08:00N 44°24' E 008°51'2 3.6
2018-Jul-11 07:30N 44°22' E 008°50'3 5.8
2018-Jul-11 07:01N 44°21' E 008°47'0 0.6
2018-Jul-11 06:30N 44°21' E 008°46'4 8.3
2018-Jul-11 06:00N 44°18' E 008°49'612.4
2018-Jul-11 05:30N 44°12' E 008°54'611.2
2018-Jul-11 05:00N 44°08' E 008°59'5 9.4
2018-Jul-11 04:30N 44°04' E 009°02'5 9.4
2018-Jul-11 04:00N 44°00' E 009°06'5 9.4
2018-Jul-11 03:30N 43°56' E 009°10'5 9.4
2018-Jul-11 03:00N 43°53' E 009°14'3 5.0
2018-Jul-11 02:30N 43°51' E 009°17'4 8.2
2018-Jul-11 02:00N 43°54' E 009°13'2 5.0
2018-Jul-11 01:30N 43°52' E 009°15'1 1.7
2018-Jul-11 01:00N 43°51' E 009°14'1 1.7
2018-Jul-11 00:30N 43°50' E 009°14'1 1.6
2018-Jul-11 00:00N 43°50' E 009°14'1 1.7
2018-Jul-10 23:30N 43°49' E 009°13'1 1.7
2018-Jul-10 23:00N 43°48' E 009°13'1 1.8
2018-Jul-10 22:30N 43°47' E 009°12'1 1.8
2018-Jul-10 22:00N 43°46' E 009°12'1 1.7
2018-Jul-10 21:30N 43°46' E 009°11'1 1.6
2018-Jul-10 21:00N 43°45' E 009°11'1 1.5
2018-Jul-10 20:30N 43°44' E 009°10'1 1.4
2018-Jul-10 20:00N 43°44' E 009°10'1 1.3
2018-Jul-10 19:30N 43°43' E 009°09'1 1.2
2018-Jul-10 19:00N 43°42' E 009°09'1 1.2
2018-Jul-10 18:30N 43°42' E 009°09'0 0.9
2018-Jul-10 18:00N 43°41' E 009°09'0 0.8
2018-Jul-10 17:30N 43°41' E 009°09'0 0.6
2018-Jul-10 17:00N 43°41' E 009°09'0 0.5
2018-Jul-10 16:30N 43°40' E 009°09'0 0.6
2018-Jul-10 16:00N 43°40' E 009°09'0 0.6
2018-Jul-10 15:30N 43°40' E 009°09'0 0.2
2018-Jul-10 15:00N 43°40' E 009°09'1 2.9
2018-Jul-10 14:30N 43°41' E 009°10'0 0.8
2018-Jul-10 14:00N 43°41' E 009°11'0 0.6
2018-Jul-10 13:30N 43°40' E 009°10'0 0.6
2018-Jul-10 13:00N 43°40' E 009°10'0 0.6
2018-Jul-10 12:30N 43°40' E 009°10'0 0.6
2018-Jul-10 12:00N 43°40' E 009°09'0 0.6
2018-Jul-10 11:30N 43°40' E 009°09'0 0.7
2018-Jul-10 11:00N 43°39' E 009°09'0 0.7
2018-Jul-10 10:22N 43°39' E 009°08'0 0.7
2018-Jul-10 09:58N 43°39' E 009°08'0 0.6
2018-Jul-10 09:28N 43°39' E 009°08'0 0.8
2018-Jul-10 08:55N 43°38' E 009°07'4 8.9
2018-Jul-10 08:30N 43°40' E 009°03'611.3
2018-Jul-10 08:00N 43°44' E 008°57'611.5
2018-Jul-10 07:30N 43°47' E 008°51'611.7
2018-Jul-10 07:00N 43°53' E 008°47'612.0
2018-Jul-10 06:30N 43°58' E 008°44'612.4
2018-Jul-10 06:00N 44°04' E 008°40'612.5
2018-Jul-10 05:30N 44°09' E 008°37'612.4
2018-Jul-10 05:00N 44°15' E 008°32'4 8.2
2018-Jul-10 04:30N 44°16' E 008°27'0 0.0
2018-Jul-10 04:00N 44°16' E 008°27'0 0.0
2018-Jul-10 03:30N 44°16' E 008°27'0 0.0
2018-Jul-10 03:00N 44°16' E 008°27'0 0.0
2018-Jul-10 02:30N 44°16' E 008°27'0 0.0
2018-Jul-10 01:57N 44°16' E 008°27'0 0.0
2018-Jul-10 01:30N 44°16' E 008°27'0 0.0
2018-Jul-10 01:00N 44°16' E 008°27'0 0.0
2018-Jul-10 00:30N 44°16' E 008°27'0 0.0
2018-Jul-10 00:00N 44°16' E 008°27'0 0.0
2018-Jul-09 23:30N 44°16' E 008°27'0 0.0
2018-Jul-09 23:00N 44°16' E 008°27'0 0.0
2018-Jul-09 22:30N 44°16' E 008°27'0 0.0
2018-Jul-09 22:00N 44°16' E 008°27'0 0.0
2018-Jul-09 21:30N 44°16' E 008°27'0 0.0
2018-Jul-09 21:00N 44°16' E 008°27'0 0.0
2018-Jul-09 20:30N 44°16' E 008°27'0 0.0
2018-Jul-09 20:00N 44°16' E 008°27'0 0.0
2018-Jul-09 19:30N 44°16' E 008°27'0 0.0
2018-Jul-09 19:00N 44°16' E 008°27'0 0.0
2018-Jul-09 18:30N 44°16' E 008°27'0 0.0
2018-Jul-09 18:00N 44°16' E 008°27'0 0.0
2018-Jul-09 17:30N 44°16' E 008°27'0 0.0
2018-Jul-09 17:00N 44°16' E 008°27'0 0.0
2018-Jul-09 16:30N 44°16' E 008°27'0 0.0
2018-Jul-09 16:00N 44°16' E 008°27'0 0.0
2018-Jul-09 15:30N 44°16' E 008°27'0 0.0
2018-Jul-09 15:00N 44°16' E 008°27'0 0.0
2018-Jul-09 14:30N 44°16' E 008°27'0 0.0
2018-Jul-09 14:00N 44°16' E 008°27'0 0.0
2018-Jul-09 13:30N 44°16' E 008°27'0 0.0
2018-Jul-09 13:00N 44°16' E 008°27'0 0.0
2018-Jul-09 12:30N 44°16' E 008°27'0 0.0
2018-Jul-09 12:00N 44°16' E 008°27'0 0.0
2018-Jul-09 11:30N 44°16' E 008°27'0 0.0
2018-Jul-09 11:00N 44°16' E 008°27'0 0.0
2018-Jul-09 10:30N 44°16' E 008°27'0 0.0
2018-Jul-09 10:00N 44°16' E 008°27'0 0.0
2018-Jul-09 09:30N 44°16' E 008°27'0 0.0
2018-Jul-09 09:00N 44°16' E 008°27'0 0.0
2018-Jul-09 08:30N 44°16' E 008°27'0 0.0
2018-Jul-09 08:00N 44°16' E 008°27'0 0.0
2018-Jul-09 07:30N 44°16' E 008°27'0 0.0
2018-Jul-09 07:00N 44°16' E 008°27'0 0.0
2018-Jul-09 06:30N 44°16' E 008°27'0 0.0
2018-Jul-09 05:57N 44°16' E 008°27'0 0.0
2018-Jul-09 05:31N 44°16' E 008°27'1 1.6
2018-Jul-09 05:00N 44°17' E 008°28'1 1.3
2018-Jul-09 04:30N 44°17' E 008°28'0 0.0
2018-Jul-09 03:57N 44°17' E 008°28'0 0.0
2018-Jul-09 03:30N 44°17' E 008°28'  

Dump ship's entire track history